createdAt,value
2019-02-27T00:01:20.980Z,99900.08
2019-02-27T00:03:50.689Z,99905.69
2019-02-27T00:06:20.376Z,99904.50
2019-02-27T00:13:17.839Z,99900.94
2019-02-27T00:15:47.480Z,99897.11
2019-02-27T00:18:17.106Z,99897.19
2019-02-27T00:20:46.810Z,99896.61
2019-02-27T00:23:16.430Z,99892.83
2019-02-27T00:25:46.069Z,99892.68
2019-02-27T00:28:15.689Z,99895.39
2019-02-27T00:30:45.327Z,99888.44
2019-02-27T00:33:14.946Z,99891.83
2019-02-27T00:35:44.566Z,99892.99
2019-02-27T00:38:14.203Z,99890.44
2019-02-27T00:40:43.819Z,99881.11
2019-02-27T00:43:13.463Z,99897.31
2019-02-27T00:45:43.074Z,99893.67
2019-02-27T00:48:12.724Z,99893.67
2019-02-27T00:50:42.412Z,99885.86
2019-02-27T00:53:12.047Z,99882.33
2019-02-27T00:55:41.667Z,99880.48
2019-02-27T00:58:11.311Z,99886.13
2019-02-27T01:00:40.941Z,99874.38
2019-02-27T01:03:10.645Z,99877.17
2019-02-27T01:05:41.199Z,99882.78
2019-02-27T01:08:11.356Z,99882.00
2019-02-27T01:10:42.844Z,99874.73
2019-02-27T01:13:12.675Z,99871.98
2019-02-27T01:15:44.694Z,99861.04
2019-02-27T01:18:13.670Z,99861.38
2019-02-27T01:20:46.400Z,99866.97
2019-02-27T01:23:14.644Z,99863.16
2019-02-27T01:25:44.268Z,99857.51
2019-02-27T01:28:13.913Z,99850.88
2019-02-27T01:30:43.524Z,99844.25
2019-02-27T01:33:13.228Z,99844.80
2019-02-27T01:35:42.846Z,99838.47
2019-02-27T01:38:12.483Z,99832.91
2019-02-27T01:40:42.173Z,99835.38
2019-02-27T01:43:11.815Z,99835.52
2019-02-27T01:45:41.427Z,99832.92
2019-02-27T01:48:11.148Z,99831.75
2019-02-27T01:50:40.767Z,99831.16
2019-02-27T01:53:10.651Z,99826.84
2019-02-27T01:55:40.341Z,99817.41
2019-02-27T01:58:10.264Z,99822.22
2019-02-27T02:00:40.307Z,99813.78
2019-02-27T02:03:11.156Z,99816.28
2019-02-27T02:05:41.495Z,99810.34
2019-02-27T02:08:13.955Z,99802.50
2019-02-27T02:10:42.623Z,99798.42
2019-02-27T02:13:17.174Z,99801.41
2019-02-27T02:16:09.640Z,99799.80
2019-02-27T02:18:55.661Z,99791.84
2019-02-27T02:21:44.800Z,99789.54
2019-02-27T02:24:38.434Z,99788.91
2019-02-27T02:27:42.937Z,99788.95
2019-02-27T02:30:45.554Z,99793.90
2019-02-27T02:33:43.008Z,99793.75
2019-02-27T02:37:01.220Z,99788.30
2019-02-27T02:39:57.838Z,99785.81
2019-02-27T02:42:43.985Z,99784.34
2019-02-27T02:45:35.606Z,99778.06
2019-02-27T02:48:46.369Z,99774.77
2019-02-27T02:51:45.643Z,99776.28
2019-02-27T02:54:36.290Z,99772.30
2019-02-27T02:57:28.263Z,99771.28
2019-02-27T03:00:17.238Z,99768.64
2019-02-27T03:03:00.999Z,99770.83
2019-02-27T03:06:06.697Z,99775.94
2019-02-27T03:09:17.545Z,99772.46
2019-02-27T03:12:11.019Z,99771.39
2019-02-27T03:15:03.134Z,99765.86
2019-02-27T03:17:53.737Z,99766.81
2019-02-27T03:20:40.020Z,99770.29
2019-02-27T03:23:34.837Z,99768.78
2019-02-27T03:26:57.103Z,99760.66
2019-02-27T03:29:37.109Z,99753.20
2019-02-27T03:32:23.361Z,99755.03
2019-02-27T03:34:57.574Z,99751.05
2019-02-27T03:37:40.507Z,99750.84
2019-02-27T03:40:45.043Z,99761.42
2019-02-27T03:43:45.924Z,99756.59
2019-02-27T03:46:40.756Z,99756.08
2019-02-27T03:49:39.748Z,99762.72
2019-02-27T03:52:27.041Z,99764.89
2019-02-27T03:55:32.839Z,99758.16
2019-02-27T03:58:30.669Z,99761.29
2019-02-27T04:01:32.888Z,99760.66
2019-02-27T04:04:29.602Z,99761.62
2019-02-27T04:07:20.496Z,99761.44
2019-02-27T04:09:54.878Z,99751.56
2019-02-27T04:12:21.472Z,99752.92
2019-02-27T04:14:51.126Z,99754.88
2019-02-27T04:17:29.248Z,99748.95
2019-02-27T04:19:59.433Z,99742.52
2019-02-27T04:22:29.051Z,99744.00
2019-02-27T04:24:58.694Z,99747.30
2019-02-27T04:27:28.320Z,99739.70
2019-02-27T04:29:57.954Z,99732.75
2019-02-27T04:32:27.574Z,99729.46
2019-02-27T04:34:57.218Z,99735.73
2019-02-27T04:37:26.850Z,99730.42
2019-02-27T04:39:56.477Z,99727.82
2019-02-27T04:42:26.524Z,99728.47
2019-02-27T04:44:56.206Z,99732.41
2019-02-27T04:47:28.869Z,99739.70
2019-02-27T04:49:57.190Z,99739.38
2019-02-27T04:52:26.804Z,99735.57
2019-02-27T04:54:56.443Z,99732.41
2019-02-27T04:57:26.061Z,99734.91
2019-02-27T04:59:55.701Z,99735.07
2019-02-27T05:02:25.391Z,99727.16
2019-02-27T05:04:55.058Z,99732.63
2019-02-27T05:07:24.674Z,99725.05
2019-02-27T05:09:54.313Z,99732.44
2019-02-27T05:12:23.928Z,99729.80
2019-02-27T05:14:53.565Z,99736.09
2019-02-27T05:17:23.179Z,99741.69
2019-02-27T05:19:52.799Z,99740.40
2019-02-27T05:22:26.443Z,99743.39
2019-02-27T05:24:53.780Z,99742.23
2019-02-27T05:27:23.422Z,99743.88
2019-02-27T05:29:53.041Z,99742.07
2019-02-27T05:32:27.885Z,99741.89
2019-02-27T05:34:54.023Z,99749.52
2019-02-27T05:37:23.691Z,99745.69
2019-02-27T05:39:53.310Z,99751.64
2019-02-27T05:42:22.953Z,99752.80
2019-02-27T05:44:55.520Z,99747.98
2019-02-27T05:47:23.937Z,99753.27
2019-02-27T05:49:53.547Z,99749.32
2019-02-27T05:52:23.179Z,99747.34
2019-02-27T05:54:52.797Z,99751.64
2019-02-27T05:57:23.325Z,99742.87
2019-02-27T05:59:53.546Z,99742.37
2019-02-27T06:02:23.187Z,99747.03
2019-02-27T06:04:52.797Z,99746.87
2019-02-27T06:07:22.439Z,99746.36
2019-02-27T06:09:52.118Z,99747.34
2019-02-27T06:12:21.804Z,99750.98
2019-02-27T06:14:54.818Z,99759.73
2019-02-27T06:17:22.844Z,99755.11
2019-02-27T06:19:52.475Z,99759.89
2019-02-27T06:22:22.123Z,99753.95
2019-02-27T06:24:51.743Z,99764.03
2019-02-27T06:27:21.379Z,99761.53
2019-02-27T06:29:51.002Z,99763.03
2019-02-27T06:32:20.643Z,99759.55
2019-02-27T06:34:50.258Z,99758.20
2019-02-27T06:37:19.899Z,99754.10
2019-02-27T06:39:49.519Z,99750.30
2019-02-27T06:42:19.233Z,99756.26
2019-02-27T06:44:48.952Z,99748.19
2019-02-27T06:47:21.044Z,99741.91
2019-02-27T06:49:52.019Z,99737.12
2019-02-27T06:52:22.197Z,99744.72
2019-02-27T06:54:52.297Z,99740.73
2019-02-27T06:57:22.539Z,99736.77
2019-02-27T06:59:52.159Z,99737.09
2019-02-27T07:02:22.310Z,99731.80
2019-02-27T07:04:52.109Z,99732.28
2019-02-27T07:07:21.743Z,99731.77
2019-02-27T07:09:51.399Z,99731.25
2019-02-27T07:12:21.829Z,99735.38
2019-02-27T07:14:52.085Z,99737.84
2019-02-27T07:17:21.714Z,99731.05
2019-02-27T07:19:51.332Z,99722.13
2019-02-27T07:22:20.988Z,99718.50
2019-02-27T07:24:50.612Z,99717.49
2019-02-27T07:27:20.270Z,99713.19
2019-02-27T07:29:49.891Z,99712.66
2019-02-27T07:32:19.512Z,99720.27
2019-02-27T07:34:49.750Z,99718.76
2019-02-27T07:37:20.059Z,99716.08
2019-02-27T07:39:49.707Z,99714.76
2019-02-27T07:42:19.327Z,99714.91
2019-02-27T07:44:48.963Z,99714.57
2019-02-27T07:47:18.575Z,99715.52
2019-02-27T07:49:48.330Z,99714.00
2019-02-27T07:52:18.008Z,99709.05
2019-02-27T07:54:47.655Z,99706.89
2019-02-27T07:57:17.271Z,99706.70
2019-02-27T07:59:46.888Z,99705.00
2019-02-27T08:02:16.592Z,99713.91
2019-02-27T08:04:46.210Z,99708.58
2019-02-27T08:07:15.848Z,99707.95
2019-02-27T08:09:45.471Z,99708.88
2019-02-27T08:12:17.551Z,99696.77
2019-02-27T08:14:47.603Z,99688.95
2019-02-27T08:17:18.031Z,99691.55
2019-02-27T08:19:47.775Z,99689.55
2019-02-27T08:22:17.427Z,99691.84
2019-02-27T08:24:47.055Z,99689.66
2019-02-27T08:27:16.662Z,99682.78
2019-02-27T08:29:46.304Z,99683.55
2019-02-27T08:32:15.913Z,99690.90
2019-02-27T08:34:45.561Z,99679.92
2019-02-27T08:37:15.175Z,99679.66
2019-02-27T08:39:44.823Z,99669.17
2019-02-27T08:42:15.758Z,99667.98
2019-02-27T08:44:46.612Z,99664.22
2019-02-27T08:47:16.302Z,99663.34
2019-02-27T08:49:46.262Z,99657.64
2019-02-27T08:52:16.355Z,99653.27
2019-02-27T08:54:46.172Z,99648.23
2019-02-27T08:57:15.823Z,99648.01
2019-02-27T08:59:45.443Z,99642.11
2019-02-27T09:02:15.697Z,99640.34
2019-02-27T09:04:45.421Z,99629.56
2019-02-27T09:07:15.835Z,99627.09
2019-02-27T09:09:45.453Z,99623.51
2019-02-27T09:12:15.098Z,99615.43
2019-02-27T09:14:44.711Z,99612.95
2019-02-27T09:17:14.351Z,99611.38
2019-02-27T09:19:45.555Z,99608.22
2019-02-27T09:22:15.357Z,99613.99
2019-02-27T09:24:44.968Z,99609.60
2019-02-27T09:27:14.612Z,99603.91
2019-02-27T09:29:44.225Z,99599.10
2019-02-27T09:32:13.864Z,99598.23
2019-02-27T09:34:43.790Z,99594.11
2019-02-27T09:37:13.863Z,99590.83
2019-02-27T09:39:43.641Z,99588.21
2019-02-27T09:42:13.327Z,99582.02
2019-02-27T09:44:42.969Z,99579.60
2019-02-27T09:47:12.596Z,99578.72
2019-02-27T09:49:42.243Z,99575.59
2019-02-27T09:52:11.862Z,99569.36
2019-02-27T09:54:41.509Z,99566.44
2019-02-27T09:57:11.121Z,99564.22
2019-02-27T09:59:40.766Z,99558.10
2019-02-27T10:02:12.452Z,99555.11
2019-02-27T10:04:41.750Z,99552.03
2019-02-27T10:07:11.446Z,99557.52
2019-02-27T10:09:41.099Z,99560.22
2019-02-27T10:12:10.759Z,99555.12
2019-02-27T10:14:40.379Z,99550.14
2019-02-27T10:17:10.055Z,99549.07
2019-02-27T10:19:39.652Z,99544.25
2019-02-27T10:22:09.294Z,99537.25
2019-02-27T10:24:38.919Z,99538.39
2019-02-27T10:27:08.566Z,99520.20
2019-02-27T10:29:38.185Z,99520.47
2019-02-27T10:32:07.832Z,99513.80
2019-02-27T10:34:37.518Z,99514.94
2019-02-27T10:37:07.271Z,99510.30
2019-02-27T10:39:37.633Z,99507.34
2019-02-27T10:42:07.334Z,99506.30
2019-02-27T10:44:36.965Z,99500.23
2019-02-27T10:47:06.584Z,99502.17
2019-02-27T10:49:38.196Z,99499.70
2019-02-27T10:52:07.577Z,99497.63
2019-02-27T10:54:39.433Z,99490.84
2019-02-27T10:57:08.568Z,99484.39
2019-02-27T10:59:38.206Z,99479.70
2019-02-27T11:02:09.709Z,99479.16
2019-02-27T11:04:39.596Z,99471.41
2019-02-27T11:07:09.450Z,99469.75
2019-02-27T11:09:41.276Z,99461.48
2019-02-27T11:12:10.509Z,99460.91
2019-02-27T11:14:40.174Z,99457.08
2019-02-27T11:17:09.815Z,99449.29
2019-02-27T11:19:39.441Z,99445.16
2019-02-27T11:22:09.178Z,99443.59
2019-02-27T11:24:38.890Z,99440.95
2019-02-27T11:27:08.541Z,99429.70
2019-02-27T11:29:38.167Z,99416.34
2019-02-27T11:32:08.093Z,99414.63
2019-02-27T11:34:37.723Z,99410.93
2019-02-27T11:37:12.998Z,99402.76
2019-02-27T11:39:38.806Z,99397.38
2019-02-27T11:42:08.465Z,99387.14
2019-02-27T11:44:38.254Z,99379.86
2019-02-27T11:47:10.979Z,99377.14
2019-02-27T11:49:39.406Z,99369.34
2019-02-27T11:52:09.120Z,99366.72
2019-02-27T11:54:42.897Z,99363.80
2019-02-27T11:57:10.112Z,99353.83
2019-02-27T11:59:39.762Z,99351.72
2019-02-27T12:02:10.064Z,99338.47
2019-02-27T12:04:39.710Z,99332.41
2019-02-27T12:07:09.342Z,99326.41
2019-02-27T12:09:38.993Z,99321.48
2019-02-27T12:12:10.401Z,99320.41
2019-02-27T12:14:40.174Z,99311.30
2019-02-27T12:17:09.803Z,99312.55
2019-02-27T12:19:42.080Z,99310.98
2019-02-27T12:22:10.806Z,99310.28
2019-02-27T12:24:40.433Z,99308.92
2019-02-27T12:27:10.401Z,99299.05
2019-02-27T12:29:41.448Z,99293.65
2019-02-27T12:32:11.105Z,99292.34
2019-02-27T12:34:40.731Z,99288.09
2019-02-27T12:37:23.745Z,99280.03
2019-02-27T12:39:43.491Z,99268.94
2019-02-27T12:42:13.337Z,99267.88
2019-02-27T12:44:42.962Z,99261.65
2019-02-27T12:47:12.586Z,99256.28
2019-02-27T12:49:42.239Z,99256.44
2019-02-27T12:52:12.187Z,99247.02
2019-02-27T12:54:41.894Z,99248.47
2019-02-27T12:57:11.598Z,99245.50
2019-02-27T12:59:41.250Z,99241.23
2019-02-27T13:02:10.992Z,99236.24
2019-02-27T13:04:40.603Z,99230.92
2019-02-27T13:07:10.722Z,99233.68
2019-02-27T13:09:41.045Z,99236.61
2019-02-27T13:12:10.673Z,99219.91
2019-02-27T13:14:40.299Z,99222.18
2019-02-27T13:17:09.949Z,99220.11
2019-02-27T13:19:39.653Z,99212.09
2019-02-27T13:22:09.306Z,99205.66
2019-02-27T13:24:38.930Z,99202.46
2019-02-27T13:27:09.246Z,99202.41
2019-02-27T13:29:39.591Z,99192.13
2019-02-27T13:32:09.315Z,99188.59
2019-02-27T13:34:38.945Z,99175.36
2019-02-27T13:37:10.128Z,99172.64
2019-02-27T13:39:40.066Z,99165.81
2019-02-27T13:42:10.065Z,99161.27
2019-02-27T13:44:39.790Z,99159.15
2019-02-27T13:47:09.411Z,99148.47
2019-02-27T13:49:39.072Z,99146.75
2019-02-27T13:52:12.192Z,99142.25
2019-02-27T13:54:40.073Z,99140.69
2019-02-27T13:57:09.699Z,99141.73
2019-02-27T13:59:39.352Z,99141.69
2019-02-27T14:02:11.347Z,99131.75
2019-02-27T14:04:40.497Z,99127.61
2019-02-27T14:07:10.197Z,99118.42
2019-02-27T14:09:41.536Z,99124.06
2019-02-27T14:12:11.201Z,99121.61
2019-02-27T14:14:40.924Z,99128.81
2019-02-27T14:17:11.405Z,99125.39
2019-02-27T14:19:41.192Z,99117.39
2019-02-27T14:22:10.817Z,99116.94
2019-02-27T14:24:40.479Z,99113.29
2019-02-27T14:27:12.013Z,99111.26
2019-02-27T14:29:41.459Z,99099.20
2019-02-27T14:32:11.180Z,99095.49
2019-02-27T14:34:40.809Z,99091.17
2019-02-27T14:37:10.460Z,99082.82
2019-02-27T14:39:40.082Z,99086.77
2019-02-27T14:42:09.736Z,99080.91
2019-02-27T14:44:39.434Z,99078.77
2019-02-27T14:47:09.085Z,99080.35
2019-02-27T14:49:38.712Z,99082.31
2019-02-27T14:52:08.365Z,99079.75
2019-02-27T14:54:37.991Z,99081.95
2019-02-27T14:57:07.638Z,99077.63
2019-02-27T14:59:37.264Z,99071.83
2019-02-27T15:02:07.072Z,99075.06
2019-02-27T15:04:36.704Z,99074.36
2019-02-27T15:07:06.397Z,99075.73
2019-02-27T15:09:36.544Z,99072.02
2019-02-27T15:12:06.963Z,99069.23
2019-02-27T15:14:36.634Z,99073.11
2019-02-27T15:17:06.264Z,99064.13
2019-02-27T15:19:35.914Z,99060.41
2019-02-27T15:22:06.218Z,99061.56
2019-02-27T15:24:35.934Z,99068.98
2019-02-27T15:27:05.565Z,99064.80
2019-02-27T15:29:36.920Z,99060.81
2019-02-27T15:32:06.787Z,99059.61
2019-02-27T15:34:36.436Z,99058.04
2019-02-27T15:37:06.059Z,99053.92
2019-02-27T15:39:35.727Z,99052.54
2019-02-27T15:42:08.608Z,99049.72
2019-02-27T15:44:37.008Z,99046.73
2019-02-27T15:47:07.310Z,99046.16
2019-02-27T15:49:36.995Z,99047.59
2019-02-27T15:52:07.686Z,99043.72
2019-02-27T15:54:37.451Z,99043.09
2019-02-27T15:57:07.104Z,99041.27
2019-02-27T15:59:40.567Z,99042.31
2019-02-27T16:02:08.363Z,99036.93
2019-02-27T16:04:37.987Z,99033.05
2019-02-27T16:07:07.625Z,99035.67
2019-02-27T16:09:37.256Z,99043.18
2019-02-27T16:12:07.141Z,99041.63
2019-02-27T16:14:36.768Z,99037.06
2019-02-27T16:17:06.427Z,99035.45
2019-02-27T16:19:36.052Z,99036.73
2019-02-27T16:22:05.670Z,99029.95
2019-02-27T16:24:35.319Z,99025.58
2019-02-27T16:27:05.015Z,99023.09
2019-02-27T16:29:34.669Z,99035.69
2019-02-27T16:32:04.292Z,99028.28
2019-02-27T16:34:34.229Z,99024.73
2019-02-27T16:37:04.047Z,99022.44
2019-02-27T16:39:33.764Z,99033.95
2019-02-27T16:42:05.105Z,99040.04
2019-02-27T16:44:34.768Z,99034.25
2019-02-27T16:47:04.397Z,99041.85
2019-02-27T16:49:34.049Z,99036.03
2019-02-27T16:52:07.877Z,99034.67
2019-02-27T16:54:35.068Z,99039.61
2019-02-27T16:57:04.698Z,99038.45
2019-02-27T16:59:34.323Z,99036.45
2019-02-27T17:02:04.704Z,99026.91
2019-02-27T17:04:34.906Z,99028.08
2019-02-27T17:07:04.679Z,99032.97
2019-02-27T17:09:34.304Z,99037.07
2019-02-27T17:12:06.919Z,99033.44
2019-02-27T17:14:35.302Z,99034.71
2019-02-27T17:17:04.956Z,99026.81
2019-02-27T17:19:36.662Z,99032.27
2019-02-27T17:22:05.958Z,99030.41
2019-02-27T17:24:35.581Z,99032.53
2019-02-27T17:27:05.298Z,99030.73
2019-02-27T17:29:34.930Z,99028.16
2019-02-27T17:32:04.704Z,99027.80
2019-02-27T17:34:35.474Z,99020.54
2019-02-27T17:37:06.336Z,99021.50
2019-02-27T17:39:36.530Z,99016.44
2019-02-27T17:42:06.230Z,99014.97
2019-02-27T17:44:37.889Z,99014.58
2019-02-27T17:47:08.242Z,99013.58
2019-02-27T17:49:38.075Z,99013.58
2019-02-27T17:52:11.377Z,99019.92
2019-02-27T17:54:39.873Z,99018.70
2019-02-27T17:57:09.510Z,99022.58
2019-02-27T17:59:42.386Z,99020.94
2019-02-27T18:02:10.585Z,99017.34
2019-02-27T18:04:40.239Z,99027.08
2019-02-27T18:07:09.975Z,99026.75
2019-02-27T18:09:40.445Z,99032.47
2019-02-27T18:12:10.144Z,99045.75
2019-02-27T18:14:43.898Z,99036.25
2019-02-27T18:17:11.161Z,99046.02
2019-02-27T18:19:40.876Z,99041.95
2019-02-27T18:22:14.026Z,99047.74
2019-02-27T18:24:41.990Z,99045.33
2019-02-27T18:27:11.646Z,99042.27
2019-02-27T18:29:43.658Z,99045.05
2019-02-27T18:32:12.712Z,99042.73
2019-02-27T18:34:42.559Z,99038.30
2019-02-27T18:37:12.341Z,99040.74
2019-02-27T18:39:41.974Z,99040.56
2019-02-27T18:42:11.627Z,99037.70
2019-02-27T18:44:41.740Z,99040.45
2019-02-27T18:47:11.478Z,99035.77
2019-02-27T18:49:42.420Z,99034.43
2019-02-27T18:52:21.046Z,99030.75
2019-02-27T18:54:43.599Z,99032.63
2019-02-27T18:57:13.323Z,99028.92
2019-02-27T18:59:42.991Z,99026.77
2019-02-27T19:02:12.752Z,99025.87
2019-02-27T19:04:42.413Z,99024.31
2019-02-27T19:07:13.976Z,99024.15
2019-02-27T19:09:43.688Z,99023.94
2019-02-27T19:12:13.444Z,99021.34
2019-02-27T19:14:43.153Z,99016.00
2019-02-27T19:17:12.914Z,99015.88
2019-02-27T19:19:42.630Z,99012.55
2019-02-27T19:22:12.594Z,99011.91
2019-02-27T19:24:42.364Z,99010.44
2019-02-27T19:27:12.318Z,99017.12
2019-02-27T19:29:42.071Z,99011.09
2019-02-27T19:32:11.832Z,99009.11
2019-02-27T19:34:44.703Z,99010.30
2019-02-27T19:37:12.967Z,99007.05
2019-02-27T19:39:42.652Z,99003.56
2019-02-27T19:42:13.231Z,99000.31
2019-02-27T19:44:43.458Z,98998.67
2019-02-27T19:47:13.107Z,98996.38
2019-02-27T19:49:42.795Z,98993.50
2019-02-27T19:52:12.543Z,98990.91
2019-02-27T19:54:42.230Z,98990.84
2019-02-27T19:57:12.001Z,98991.73
2019-02-27T19:59:41.745Z,98991.15
2019-02-27T20:02:11.496Z,98990.55
2019-02-27T20:04:43.651Z,98988.09
2019-02-27T20:07:12.738Z,98986.16
2019-02-27T20:09:42.390Z,98988.09
2019-02-27T20:12:12.695Z,98989.14
2019-02-27T20:14:43.581Z,98982.91
2019-02-27T20:17:13.269Z,98976.17
2019-02-27T20:19:42.910Z,98975.28
2019-02-27T20:22:15.489Z,98967.52
2019-02-27T20:24:44.047Z,98971.49
2019-02-27T20:27:13.732Z,98968.23
2019-02-27T20:29:43.350Z,98960.97
2019-02-27T20:32:12.991Z,98968.66
2019-02-27T20:34:45.935Z,98965.02
2019-02-27T20:37:14.119Z,98966.20
2019-02-27T20:39:43.732Z,98969.53
2019-02-27T20:42:14.383Z,98963.96
2019-02-27T20:44:44.152Z,98971.60
2019-02-27T20:47:13.806Z,98962.55
2019-02-27T20:49:44.655Z,98964.08
2019-02-27T20:52:15.667Z,98964.28
2019-02-27T20:54:45.403Z,98958.41
2019-02-27T20:57:15.091Z,98959.94
2019-02-27T20:59:44.735Z,98958.60
2019-02-27T21:02:14.418Z,98962.09
2019-02-27T21:04:44.136Z,98958.91
2019-02-27T21:07:22.018Z,98956.02
2019-02-27T21:09:45.901Z,98960.25
2019-02-27T21:12:15.692Z,98958.28
2019-02-27T21:14:45.337Z,98965.85
2019-02-27T21:17:16.504Z,98960.94
2019-02-27T21:19:46.387Z,98963.77
2019-02-27T21:22:16.012Z,98962.87
2019-02-27T21:24:45.655Z,98965.72
2019-02-27T21:27:15.303Z,98972.69
2019-02-27T21:29:45.028Z,98967.91
2019-02-27T21:32:14.643Z,98971.53
2019-02-27T21:34:44.340Z,98967.33
2019-02-27T21:37:16.166Z,98966.81
2019-02-27T21:39:45.325Z,98967.30
2019-02-27T21:42:18.364Z,98971.69
2019-02-27T21:44:46.457Z,98973.56
2019-02-27T21:47:18.364Z,98972.37
2019-02-27T21:49:47.510Z,98969.69
2019-02-27T21:52:21.398Z,98967.68
2019-02-27T21:54:48.495Z,98964.64
2019-02-27T21:57:18.207Z,98964.63
2019-02-27T21:59:47.823Z,98961.83
2019-02-27T22:02:17.492Z,98965.12
2019-02-27T22:04:47.095Z,98955.89
2019-02-27T22:07:16.731Z,98959.56
2019-02-27T22:09:46.346Z,98958.50
2019-02-27T22:12:15.996Z,98949.84
2019-02-27T22:14:48.599Z,98952.64
2019-02-27T22:17:16.972Z,98950.22
2019-02-27T22:19:46.660Z,98951.83
2019-02-27T22:22:16.274Z,98952.56
2019-02-27T22:24:45.915Z,98953.48
2019-02-27T22:27:15.528Z,98956.28
2019-02-27T22:29:45.171Z,98956.78
2019-02-27T22:32:15.379Z,98958.02
2019-02-27T22:34:45.110Z,98952.61
2019-02-27T22:37:17.539Z,98951.66
2019-02-27T22:39:46.099Z,98950.14
2019-02-27T22:42:15.721Z,98941.25
2019-02-27T22:44:45.362Z,98938.69
2019-02-27T22:47:14.975Z,98928.38
2019-02-27T22:49:44.634Z,98935.34
2019-02-27T22:52:14.249Z,98928.20
2019-02-27T22:54:43.931Z,98929.44
2019-02-27T22:57:13.573Z,98927.50
2019-02-27T22:59:43.256Z,98919.85
2019-02-27T23:02:13.180Z,98921.91
2019-02-27T23:04:42.795Z,98918.65
2019-02-27T23:07:12.677Z,98915.45
2019-02-27T23:09:42.367Z,98922.31
2019-02-27T23:12:12.747Z,98911.69
2019-02-27T23:14:42.533Z,98922.78
2019-02-27T23:17:12.177Z,98915.41
2019-02-27T23:19:46.060Z,98913.88
2019-02-27T23:22:13.438Z,98913.77
2019-02-27T23:24:43.877Z,98902.43
2019-02-27T23:27:14.372Z,98909.06
2019-02-27T23:29:43.985Z,98902.91
2019-02-27T23:32:13.675Z,98904.04
2019-02-27T23:34:43.321Z,98897.59
2019-02-27T23:37:12.938Z,98893.32
2019-02-27T23:39:43.604Z,98897.09
2019-02-27T23:42:13.461Z,98897.81
2019-02-27T23:44:43.123Z,98894.05
2019-02-27T23:47:12.741Z,98886.42
2019-02-27T23:49:42.381Z,98889.30
2019-02-27T23:52:11.997Z,98883.77
2019-02-27T23:54:41.718Z,98877.64
2019-02-27T23:57:11.337Z,98886.20
2019-02-27T23:59:41.051Z,98878.34
